Time;durP1;ratioP1;P1;durP2;ratioP2;P2;SDS_P1;SDS_P2;PMS_P1;PMS_P2;Temp;Humidity;BMP_temperature;BMP_pressure;BME280_temperature;BME280_humidity;BME280_pressure;Samples;Min_cycle;Max_cycle;Signal;HPM_P1;HPM_P2
2022/01/18 00:00:24;;;;;;;;;;;;;;;2.3;94.27344;103951.1;;;;-78
2022/01/18 00:03:08;;;;;;;6.7;1.6;;;;;;;;;;;;;-78
2022/01/18 00:05:25;;;;;;;;;;;;;;;2.27;94.21191;103943.3;;;;-79
2022/01/18 00:10:29;;;;;;;;;;;;;;;2.23;94.08496;103944.8;;;;-78
2022/01/18 00:15:39;;;;;;;;;;;;;;;2.2;94.00098;103952.2;;;;-80
2022/01/18 00:20:34;;;;;;;;;;;;;;;2.15;94.12305;103957.2;;;;-78
2022/01/18 00:25:24;;;;;;;;;;;;;;;2.12;94.0918;103955.6;;;;-78
2022/01/18 00:30:47;;;;;;;;;;;;;;;2.06;94.02539;103959.1;;;;-78
2022/01/18 00:33:16;;;;;;;3.1;1.3;;;;;;;;;;;;;-78
2022/01/18 00:35:26;;;;;;;;;;;;;;;2.03;93.99805;103953;;;;-78
2022/01/18 00:40:24;;;;;;;;;;;;;;;1.99;93.93359;103956.7;;;;-78
2022/01/18 00:45:24;;;;;;;;;;;;;;;1.95;94.19629;103953.7;;;;-78
2022/01/18 00:50:26;;;;;;;;;;;;;;;1.91;94.06934;103953.1;;;;-78
2022/01/18 00:55:26;;;;;;;;;;;;;;;1.87;94.0293;103951.4;;;;-78
2022/01/18 01:00:24;;;;;;;;;;;;;;;1.85;94.08789;103953.4;;;;-78
2022/01/18 01:03:07;;;;;;;2.9;1.1;;;;;;;;;;;;;-78
2022/01/18 01:05:24;;;;;;;;;;;;;;;1.84;94.24805;103956.9;;;;-78
2022/01/18 01:10:24;;;;;;;;;;;;;;;1.82;94.11426;103950;;;;-78
2022/01/18 01:15:26;;;;;;;;;;;;;;;1.83;94.25684;103941.2;;;;-78
2022/01/18 01:33:41;;;;;;;2.3;0.8;;;;;;;;;;;;;-77
2022/01/18 01:35:38;;;;;;;;;;;;;;;1.79;94.24609;103957.5;;;;-76
2022/01/18 01:45:26;;;;;;;;;;;;;;;1.79;94.13867;103951.4;;;;-76
2022/01/18 01:50:28;;;;;;;;;;;;;;;1.8;94.25977;103958.2;;;;-77
2022/01/18 01:55:25;;;;;;;;;;;;;;;1.78;94.19043;103958.8;;;;-77
2022/01/18 02:00:24;;;;;;;;;;;;;;;1.78;94.0957;103953.4;;;;-77
2022/01/18 02:03:04;;;;;;;2.3;1.1;;;;;;;;;;;;;-77
2022/01/18 02:05:24;;;;;;;;;;;;;;;1.78;94.22461;103949;;;;-78
2022/01/18 02:10:24;;;;;;;;;;;;;;;1.75;94.1416;103946.7;;;;-78
2022/01/18 02:15:24;;;;;;;;;;;;;;;1.75;94.22754;103950.1;;;;-77
2022/01/18 02:25:25;;;;;;;;;;;;;;;1.77;94.21875;103941.4;;;;-78
2022/01/18 02:30:24;;;;;;;;;;;;;;;1.74;94.11816;103938.7;;;;-77
2022/01/18 02:33:05;;;;;;;1.4;0.8;;;;;;;;;;;;;-78
2022/01/18 02:35:24;;;;;;;;;;;;;;;1.76;94.20801;103936.1;;;;-80
2022/01/18 02:40:24;;;;;;;;;;;;;;;1.76;94.18652;103938.6;;;;-77
2022/01/18 02:45:24;;;;;;;;;;;;;;;1.76;94.29395;103938.1;;;;-77
2022/01/18 02:50:25;;;;;;;;;;;;;;;1.78;94.25586;103947.2;;;;-77
2022/01/18 02:55:24;;;;;;;;;;;;;;;1.77;94.26367;103951.9;;;;-78
2022/01/18 03:00:31;;;;;;;;;;;;;;;1.76;94.27246;103952.2;;;;-78
2022/01/18 03:03:17;;;;;;;1.7;0.8;;;;;;;;;;;;;-77
2022/01/18 03:05:24;;;;;;;;;;;;;;;1.78;94.29883;103950.5;;;;-78
2022/01/18 03:10:24;;;;;;;;;;;;;;;1.77;94.27441;103944;;;;-77
2022/01/18 03:15:24;;;;;;;;;;;;;;;1.78;94.24609;103946.5;;;;-78
2022/01/18 03:20:25;;;;;;;;;;;;;;;1.76;94.30566;103948.7;;;;-77
2022/01/18 03:25:40;;;;;;;;;;;;;;;1.77;94.26172;103956.4;;;;-77
2022/01/18 03:30:24;;;;;;;;;;;;;;;1.78;94.33105;103962.2;;;;-77
2022/01/18 03:33:00;;;;;;;1.2;0.6;;;;;;;;;;;;;-78
2022/01/18 03:35:25;;;;;;;;;;;;;;;1.76;94.30566;103955.3;;;;-78
2022/01/18 03:40:24;;;;;;;;;;;;;;;1.76;94.28418;103948.4;;;;-77
2022/01/18 03:45:27;;;;;;;;;;;;;;;1.75;94.26855;103951.6;;;;-77
2022/01/18 03:50:24;;;;;;;;;;;;;;;1.74;94.2666;103957.9;;;;-78
2022/01/18 03:55:25;;;;;;;;;;;;;;;1.73;94.2666;103955.5;;;;-78
2022/01/18 04:00:26;;;;;;;;;;;;;;;1.73;94.24316;103957.1;;;;-77
2022/01/18 04:03:00;;;;;;;1.6;0.7;;;;;;;;;;;;;-78
2022/01/18 04:05:25;;;;;;;;;;;;;;;1.74;94.34277;103955.5;;;;-77
2022/01/18 04:10:24;;;;;;;;;;;;;;;1.73;94.2666;103965;;;;-77
2022/01/18 04:15:24;;;;;;;;;;;;;;;1.74;94.25781;103973;;;;-77
2022/01/18 04:30:25;;;;;;;;;;;;;;;1.71;94.20898;103980.6;;;;-79
2022/01/18 04:32:59;;;;;;;1.2;0.6;;;;;;;;;;;;;-78
2022/01/18 04:35:24;;;;;;;;;;;;;;;1.71;94.31641;103980;;;;-77
2022/01/18 04:40:28;;;;;;;;;;;;;;;1.69;94.13867;103970.7;;;;-77
2022/01/18 04:50:24;;;;;;;;;;;;;;;1.64;94.18262;103965;;;;-76
2022/01/18 04:55:31;;;;;;;;;;;;;;;1.64;94.22559;103965.7;;;;-77
2022/01/18 05:00:24;;;;;;;;;;;;;;;1.59;94.19141;103960.4;;;;-77
2022/01/18 05:02:57;;;;;;;1.5;0.6;;;;;;;;;;;;;-77
2022/01/18 05:05:28;;;;;;;;;;;;;;;1.58;94.125;103959.6;;;;-77
2022/01/18 05:10:27;;;;;;;;;;;;;;;1.56;94.20703;103966.5;;;;-76
2022/01/18 05:15:42;;;;;;;;;;;;;;;1.56;94.11035;103962.5;;;;-77
2022/01/18 05:25:26;;;;;;;;;;;;;;;1.52;94.10254;103955.8;;;;-77
2022/01/18 05:30:24;;;;;;;;;;;;;;;1.5;94.13965;103958.5;;;;-77
2022/01/18 05:32:56;;;;;;;1.5;0.7;;;;;;;;;;;;;-77
2022/01/18 05:35:24;;;;;;;;;;;;;;;1.5;94.21484;103956.9;;;;-77
2022/01/18 05:40:24;;;;;;;;;;;;;;;1.49;94.24512;103956;;;;-76
2022/01/18 05:45:24;;;;;;;;;;;;;;;1.49;94.28809;103961.8;;;;-78
2022/01/18 05:50:24;;;;;;;;;;;;;;;1.49;94.21289;103964.1;;;;-78
2022/01/18 05:55:24;;;;;;;;;;;;;;;1.48;94.15918;103955.9;;;;-78
2022/01/18 06:00:26;;;;;;;;;;;;;;;1.48;94.32129;103954;;;;-77
2022/01/18 06:03:11;;;;;;;1.8;0.7;;;;;;;;;;;;;-79
2022/01/18 06:10:24;;;;;;;;;;;;;;;1.47;94.29492;103961.1;;;;-78
2022/01/18 06:15:24;;;;;;;;;;;;;;;1.47;94.24121;103967.4;;;;-78
2022/01/18 06:20:24;;;;;;;;;;;;;;;1.49;94.25586;103966.7;;;;-77
2022/01/18 06:25:24;;;;;;;;;;;;;;;1.48;94.20215;103972.2;;;;-78
2022/01/18 06:30:24;;;;;;;;;;;;;;;1.48;94.19141;103972.4;;;;-79
2022/01/18 06:32:53;;;;;;;1.4;0.7;;;;;;;;;;;;;-77
2022/01/18 06:35:24;;;;;;;;;;;;;;;1.47;94.23047;103975;;;;-77
2022/01/18 06:40:25;;;;;;;;;;;;;;;1.46;94.23926;103974.8;;;;-79
2022/01/18 06:45:24;;;;;;;;;;;;;;;1.46;94.22852;103988.8;;;;-78
2022/01/18 06:50:24;;;;;;;;;;;;;;;1.45;94.20508;103978.7;;;;-78
2022/01/18 06:55:25;;;;;;;;;;;;;;;1.43;94.24414;103980.3;;;;-78
2022/01/18 07:00:27;;;;;;;;;;;;;;;1.44;94.35449;103988.2;;;;-79
2022/01/18 07:02:52;;;;;;;1.3;0.7;;;;;;;;;;;;;-78
2022/01/18 07:05:24;;;;;;;;;;;;;;;1.45;94.38867;103988.8;;;;-78
2022/01/18 07:10:25;;;;;;;;;;;;;;;1.43;94.26758;103992.5;;;;-78
2022/01/18 07:15:27;;;;;;;;;;;;;;;1.44;94.23535;103988.8;;;;-80
2022/01/18 07:20:24;;;;;;;;;;;;;;;1.42;94.25293;103982.2;;;;-76
2022/01/18 07:25:25;;;;;;;;;;;;;;;1.42;94.24219;103978.5;;;;-76
2022/01/18 07:30:25;;;;;;;;;;;;;;;1.41;94.27246;103983.2;;;;-76
2022/01/18 07:32:51;;;;;;;1.5;0.7;;;;;;;;;;;;;-77
2022/01/18 07:35:25;;;;;;;;;;;;;;;1.42;94.19922;103979.1;;;;-76
2022/01/18 07:40:24;;;;;;;;;;;;;;;1.41;94.24023;103989.3;;;;-76
2022/01/18 07:45:24;;;;;;;;;;;;;;;1.4;94.23828;103994.9;;;;-77
2022/01/18 07:50:24;;;;;;;;;;;;;;;1.42;94.18848;103989.2;;;;-78
2022/01/18 07:55:24;;;;;;;;;;;;;;;1.4;94.25977;103991.6;;;;-77
2022/01/18 08:00:24;;;;;;;;;;;;;;;1.41;94.31543;104000.2;;;;-77
2022/01/18 08:02:50;;;;;;;2.4;0.9;;;;;;;;;;;;;-77
2022/01/18 08:05:24;;;;;;;;;;;;;;;1.41;94.42383;104002;;;;-77
2022/01/18 08:10:30;;;;;;;;;;;;;;;1.44;94.51563;104003.2;;;;-77
2022/01/18 08:15:25;;;;;;;;;;;;;;;1.46;94.5625;103996.9;;;;-77
2022/01/18 08:20:24;;;;;;;;;;;;;;;1.51;94.53223;104001.9;;;;-77
2022/01/18 08:25:24;;;;;;;;;;;;;;;1.51;94.47754;104003.7;;;;-77
2022/01/18 08:30:24;;;;;;;;;;;;;;;1.53;94.51367;103999.2;;;;-78
2022/01/18 08:32:54;;;;;;;6.5;2.9;;;;;;;;;;;;;-77
2022/01/18 08:35:24;;;;;;;;;;;;;;;1.57;94.5332;103997.3;;;;-77
2022/01/18 08:40:24;;;;;;;;;;;;;;;1.6;94.53027;103995.4;;;;-77
2022/01/18 08:45:24;;;;;;;;;;;;;;;1.64;94.77344;103995.9;;;;-78
2022/01/18 08:50:24;;;;;;;;;;;;;;;1.67;94.70801;103991.9;;;;-78
2022/01/18 08:55:25;;;;;;;;;;;;;;;1.74;94.79785;103994.9;;;;-79
2022/01/18 09:00:27;;;;;;;;;;;;;;;1.8;94.875;103995;;;;-78
2022/01/18 09:02:48;;;;;;;10.2;4;;;;;;;;;;;;;-77
2022/01/18 09:05:25;;;;;;;;;;;;;;;1.88;95.0459;103992.2;;;;-79
2022/01/18 09:10:26;;;;;;;;;;;;;;;1.95;95.05957;103993.1;;;;-78
2022/01/18 09:15:25;;;;;;;;;;;;;;;2.02;95.08691;103999.6;;;;-78
2022/01/18 09:20:24;;;;;;;;;;;;;;;2.09;94.92773;103997.1;;;;-78
2022/01/18 09:25:25;;;;;;;;;;;;;;;2.17;95.19629;104006.6;;;;-78
2022/01/18 09:30:25;;;;;;;;;;;;;;;2.25;95.03125;104006.8;;;;-78
2022/01/18 09:32:47;;;;;;;8.3;4.1;;;;;;;;;;;;;-78
2022/01/18 09:35:26;;;;;;;;;;;;;;;2.34;95.04883;104005.1;;;;-78
2022/01/18 09:40:25;;;;;;;;;;;;;;;2.43;95.08008;104006.1;;;;-78
2022/01/18 09:45:25;;;;;;;;;;;;;;;2.52;94.99023;104009.5;;;;-78
2022/01/18 09:50:27;;;;;;;;;;;;;;;2.61;94.82813;104012.2;;;;-77
2022/01/18 09:55:31;;;;;;;;;;;;;;;2.7;94.94531;104012.3;;;;-79
2022/01/18 10:00:34;;;;;;;;;;;;;;;2.77;94.75391;104017.4;;;;-78
2022/01/18 10:02:46;;;;;;;10.7;3.9;;;;;;;;;;;;;-77
2022/01/18 10:05:26;;;;;;;;;;;;;;;2.85;94.94336;104022;;;;-78
2022/01/18 10:10:24;;;;;;;;;;;;;;;2.89;94.89063;104023.9;;;;-79
2022/01/18 10:15:24;;;;;;;;;;;;;;;2.96;94.95898;104027.7;;;;-78
2022/01/18 10:20:26;;;;;;;;;;;;;;;3.03;95.0918;104030.9;;;;-79
2022/01/18 10:25:25;;;;;;;;;;;;;;;3.11;95.08789;104016.8;;;;-78
2022/01/18 10:30:33;;;;;;;;;;;;;;;3.17;95.10254;104016.8;;;;-79
2022/01/18 10:32:46;;;;;;;7.2;3.1;;;;;;;;;;;;;-78
2022/01/18 10:35:24;;;;;;;;;;;;;;;3.24;95.08594;104014.7;;;;-79
2022/01/18 10:40:26;;;;;;;;;;;;;;;3.3;94.9248;104012.6;;;;-79
2022/01/18 10:45:29;;;;;;;;;;;;;;;3.37;94.89746;104010.5;;;;-79
2022/01/18 10:50:25;;;;;;;;;;;;;;;3.44;94.51074;104006.9;;;;-78
2022/01/18 10:55:25;;;;;;;;;;;;;;;3.52;94.29004;104006;;;;-79
2022/01/18 11:00:25;;;;;;;;;;;;;;;3.6;94.06934;104004.9;;;;-79
2022/01/18 11:02:46;;;;;;;10.7;3.9;;;;;;;;;;;;;-79
2022/01/18 11:05:28;;;;;;;;;;;;;;;3.68;93.96777;104010.8;;;;-79
2022/01/18 11:10:27;;;;;;;;;;;;;;;3.75;93.75391;104003.1;;;;-78
2022/01/18 11:15:26;;;;;;;;;;;;;;;3.81;93.66992;104001.9;;;;-79
2022/01/18 11:20:24;;;;;;;;;;;;;;;3.87;93.61914;103994.4;;;;-79
2022/01/18 11:25:24;;;;;;;;;;;;;;;3.92;93.41211;103999.8;;;;-79
2022/01/18 11:30:33;;;;;;;;;;;;;;;4;93.60352;103995;;;;-79
2022/01/18 11:32:45;;;;;;;10.4;5;;;;;;;;;;;;;-79
2022/01/18 11:35:27;;;;;;;;;;;;;;;4.06;93.63867;103989.1;;;;-77
2022/01/18 11:40:24;;;;;;;;;;;;;;;4.13;93.57813;103997.3;;;;-79
2022/01/18 11:45:41;;;;;;;;;;;;;;;4.21;93.66797;103990.6;;;;-79
2022/01/18 11:50:24;;;;;;;;;;;;;;;4.27;93.66016;103989;;;;-82
2022/01/18 11:55:35;;;;;;;;;;;;;;;4.32;93.59766;103983.6;;;;-80
2022/01/18 12:00:29;;;;;;;;;;;;;;;4.39;93.61426;103990.1;;;;-80
2022/01/18 12:02:48;;;;;;;13.8;5.7;;;;;;;;;;;;;-79
2022/01/18 12:05:25;;;;;;;;;;;;;;;4.45;93.75586;103985.1;;;;-80
2022/01/18 12:10:38;;;;;;;;;;;;;;;4.5;93.78809;103983.9;;;;-80
2022/01/18 12:15:36;;;;;;;;;;;;;;;4.55;93.78906;103983.8;;;;-80
2022/01/18 12:20:35;;;;;;;;;;;;;;;4.61;93.72461;103980.5;;;;-80
2022/01/18 12:25:37;;;;;;;;;;;;;;;4.66;93.6709;103976;;;;-78
2022/01/18 12:30:39;;;;;;;;;;;;;;;4.71;93.73535;103970.1;;;;-80
2022/01/18 12:33:00;;;;;;;17;6;;;;;;;;;;;;;-80
2022/01/18 12:35:27;;;;;;;;;;;;;;;4.77;93.5752;103967.5;;;;-79
2022/01/18 12:40:31;;;;;;;;;;;;;;;4.82;93.53223;103964;;;;-79
2022/01/18 12:45:25;;;;;;;;;;;;;;;4.86;93.36621;103955.3;;;;-79
2022/01/18 12:50:25;;;;;;;;;;;;;;;4.89;93.47266;103948.4;;;;-79
2022/01/18 12:55:40;;;;;;;;;;;;;;;4.92;93.26074;103948.4;;;;-78
2022/01/18 13:00:24;;;;;;;;;;;;;;;4.96;93.19238;103955.1;;;;-79
2022/01/18 13:02:43;;;;;;;18.1;6.9;;;;;;;;;;;;;-80
2022/01/18 13:05:24;;;;;;;;;;;;;;;4.98;93.31348;103940.3;;;;-80
2022/01/18 13:10:34;;;;;;;;;;;;;;;4.99;93.35059;103933.4;;;;-80
2022/01/18 13:15:35;;;;;;;;;;;;;;;5.01;93.31055;103938.4;;;;-80
2022/01/18 13:25:24;;;;;;;;;;;;;;;5.04;93.39258;103937.9;;;;-79
2022/01/18 13:30:28;;;;;;;;;;;;;;;5.05;93.35156;103926.9;;;;-78
2022/01/18 13:32:43;;;;;;;23;7.6;;;;;;;;;;;;;-79
2022/01/18 13:35:29;;;;;;;;;;;;;;;5.05;93.3291;103924.9;;;;-79
2022/01/18 13:40:25;;;;;;;;;;;;;;;5.03;93.37109;103914.9;;;;-79
2022/01/18 13:45:34;;;;;;;;;;;;;;;5.03;93.37988;103908.6;;;;-80
2022/01/18 13:50:43;;;;;;;;;;;;;;;5.03;93.51074;103912.8;;;;-76
2022/01/18 13:55:33;;;;;;;;;;;;;;;5.03;93.62109;103909.8;;;;-76
2022/01/18 14:00:26;;;;;;;;;;;;;;;5.04;93.75391;103902.9;;;;-78
2022/01/18 14:02:46;;;;;;;24.9;7.7;;;;;;;;;;;;;-80
2022/01/18 14:05:24;;;;;;;;;;;;;;;5.04;93.88281;103899.3;;;;-78
2022/01/18 14:10:25;;;;;;;;;;;;;;;5.03;93.67383;103894.5;;;;-78
2022/01/18 14:15:35;;;;;;;;;;;;;;;5.03;93.66309;103888.3;;;;-78
2022/01/18 14:20:24;;;;;;;;;;;;;;;5.03;93.79297;103891.2;;;;-78
2022/01/18 14:25:31;;;;;;;;;;;;;;;5.02;93.82617;103888.4;;;;-77
2022/01/18 14:30:28;;;;;;;;;;;;;;;5.02;93.79199;103889.6;;;;-79
2022/01/18 14:32:45;;;;;;;31.1;8.7;;;;;;;;;;;;;-78
2022/01/18 14:35:26;;;;;;;;;;;;;;;5;93.68945;103880;;;;-78
2022/01/18 14:40:26;;;;;;;;;;;;;;;5;93.82031;103877.6;;;;-79
2022/01/18 14:45:42;;;;;;;;;;;;;;;4.99;93.9375;103873.8;;;;-78
2022/01/18 14:50:25;;;;;;;;;;;;;;;4.98;94.00098;103863.3;;;;-79
2022/01/18 14:55:25;;;;;;;;;;;;;;;4.96;93.82129;103857.6;;;;-80
2022/01/18 15:00:25;;;;;;;;;;;;;;;4.95;93.69922;103854;;;;-79
2022/01/18 15:02:42;;;;;;;27.5;8.1;;;;;;;;;;;;;-79
2022/01/18 15:05:24;;;;;;;;;;;;;;;4.93;93.52148;103850.7;;;;-79
2022/01/18 15:10:25;;;;;;;;;;;;;;;4.91;93.48535;103849.8;;;;-79
2022/01/18 15:15:27;;;;;;;;;;;;;;;4.89;93.57031;103851.8;;;;-79
2022/01/18 15:20:24;;;;;;;;;;;;;;;4.88;93.58594;103849.7;;;;-78
2022/01/18 15:25:24;;;;;;;;;;;;;;;4.86;93.56055;103841.7;;;;-78
2022/01/18 15:30:27;;;;;;;;;;;;;;;4.84;93.54785;103837.2;;;;-81
2022/01/18 15:32:43;;;;;;;30.3;8.4;;;;;;;;;;;;;-80
2022/01/18 15:35:24;;;;;;;;;;;;;;;4.83;93.52148;103830.3;;;;-80
2022/01/18 15:40:24;;;;;;;;;;;;;;;4.82;93.56543;103828.4;;;;-80
2022/01/18 15:45:24;;;;;;;;;;;;;;;4.8;93.61328;103821;;;;-80
2022/01/18 15:50:25;;;;;;;;;;;;;;;4.78;93.71875;103817.9;;;;-79
2022/01/18 15:55:24;;;;;;;;;;;;;;;4.76;93.625;103816.2;;;;-79
2022/01/18 16:00:24;;;;;;;;;;;;;;;4.73;93.75;103798.9;;;;-79
2022/01/18 16:02:42;;;;;;;29.2;8.3;;;;;;;;;;;;;-79
2022/01/18 16:05:27;;;;;;;;;;;;;;;4.72;93.86816;103795.1;;;;-80
2022/01/18 16:10:24;;;;;;;;;;;;;;;4.7;93.78809;103785.3;;;;-78
2022/01/18 16:15:24;;;;;;;;;;;;;;;4.69;93.88574;103783.1;;;;-77
2022/01/18 16:20:24;;;;;;;;;;;;;;;4.67;93.93359;103775.1;;;;-79
2022/01/18 16:25:24;;;;;;;;;;;;;;;4.66;94.24512;103762.7;;;;-78
2022/01/18 16:30:24;;;;;;;;;;;;;;;4.65;94.4082;103768.3;;;;-77
2022/01/18 16:32:43;;;;;;;24.1;8;;;;;;;;;;;;;-79
2022/01/18 16:35:24;;;;;;;;;;;;;;;4.64;94.55859;103770.6;;;;-79
2022/01/18 16:40:24;;;;;;;;;;;;;;;4.63;94.67383;103772.1;;;;-79
2022/01/18 16:45:24;;;;;;;;;;;;;;;4.63;94.82617;103766.3;;;;-79
2022/01/18 16:50:24;;;;;;;;;;;;;;;4.61;95.03906;103760.7;;;;-79
2022/01/18 16:55:24;;;;;;;;;;;;;;;4.6;95.00488;103752.9;;;;-79
2022/01/18 17:00:24;;;;;;;;;;;;;;;4.6;95.03711;103747.3;;;;-79
2022/01/18 17:02:41;;;;;;;28.7;7.9;;;;;;;;;;;;;-79
2022/01/18 17:05:27;;;;;;;;;;;;;;;4.61;95.09375;103750.8;;;;-79
2022/01/18 17:10:25;;;;;;;;;;;;;;;4.59;94.99414;103743.2;;;;-79
2022/01/18 17:15:24;;;;;;;;;;;;;;;4.58;94.99023;103744.1;;;;-79
2022/01/18 17:20:27;;;;;;;;;;;;;;;4.58;94.9873;103740.7;;;;-79
2022/01/18 17:25:26;;;;;;;;;;;;;;;4.56;94.75781;103747.1;;;;-78
2022/01/18 17:30:25;;;;;;;;;;;;;;;4.55;94.63574;103743.1;;;;-79
2022/01/18 17:32:40;;;;;;;24.4;7.3;;;;;;;;;;;;;-78
2022/01/18 17:35:24;;;;;;;;;;;;;;;4.53;94.69531;103753.2;;;;-79
2022/01/18 17:40:26;;;;;;;;;;;;;;;4.51;94.76758;103749.3;;;;-78
2022/01/18 17:45:24;;;;;;;;;;;;;;;4.49;94.84863;103738.9;;;;-79
2022/01/18 17:50:24;;;;;;;;;;;;;;;4.46;94.93164;103735.4;;;;-78
2022/01/18 17:55:24;;;;;;;;;;;;;;;4.44;94.86035;103749.7;;;;-79
2022/01/18 18:00:24;;;;;;;;;;;;;;;4.41;94.9541;103758.7;;;;-73
2022/01/18 18:02:40;;;;;;;24.9;7.3;;;;;;;;;;;;;-77
2022/01/18 18:05:24;;;;;;;;;;;;;;;4.4;95.03711;103767.1;;;;-78
2022/01/18 18:10:24;;;;;;;;;;;;;;;4.37;95.17188;103774;;;;-78
2022/01/18 18:15:24;;;;;;;;;;;;;;;4.34;95.12207;103780.1;;;;-78
2022/01/18 18:20:26;;;;;;;;;;;;;;;4.31;95.10352;103772.8;;;;-79
2022/01/18 18:25:25;;;;;;;;;;;;;;;4.29;95.12988;103758.8;;;;-79
2022/01/18 18:30:26;;;;;;;;;;;;;;;4.25;95.12402;103743.4;;;;-79
2022/01/18 18:32:39;;;;;;;20.5;6.7;;;;;;;;;;;;;-79
2022/01/18 18:35:25;;;;;;;;;;;;;;;4.22;95.09473;103719.9;;;;-79
2022/01/18 18:40:31;;;;;;;;;;;;;;;4.2;95.2207;103723;;;;-80
2022/01/18 18:45:25;;;;;;;;;;;;;;;4.18;95.15137;103747.1;;;;-80
2022/01/18 18:50:24;;;;;;;;;;;;;;;4.16;95.14746;103774.2;;;;-79
2022/01/18 18:55:24;;;;;;;;;;;;;;;4.14;95.12012;103779.3;;;;-79
2022/01/18 19:00:46;;;;;;;;;;;;;;;4.12;95.24805;103785.6;;;;-79
2022/01/18 19:03:02;;;;;;;21.4;6;;;;;;;;;;;;;-79
2022/01/18 19:05:24;;;;;;;;;;;;;;;4.11;95.33105;103793.5;;;;-80
2022/01/18 19:10:26;;;;;;;;;;;;;;;4.1;95.28516;103778.5;;;;-79
2022/01/18 19:15:25;;;;;;;;;;;;;;;4.1;95.20898;103782;;;;-76
2022/01/18 19:20:25;;;;;;;;;;;;;;;4.09;95.24023;103776.9;;;;-77
2022/01/18 19:25:25;;;;;;;;;;;;;;;4.09;95.21777;103778.9;;;;-78
2022/01/18 19:30:25;;;;;;;;;;;;;;;4.08;95.24902;103778.2;;;;-77
2022/01/18 19:32:39;;;;;;;22;6.7;;;;;;;;;;;;;-78
2022/01/18 19:35:24;;;;;;;;;;;;;;;4.07;95.22754;103770;;;;-77
2022/01/18 19:40:25;;;;;;;;;;;;;;;4.07;95.22754;103764.8;;;;-77
2022/01/18 19:45:24;;;;;;;;;;;;;;;4.08;95.36816;103764.4;;;;-77
2022/01/18 19:50:25;;;;;;;;;;;;;;;4.07;95.31152;103758.2;;;;-76
2022/01/18 19:55:24;;;;;;;;;;;;;;;4.07;95.38965;103757.6;;;;-76
2022/01/18 20:00:26;;;;;;;;;;;;;;;4.07;95.2793;103744.5;;;;-76
2022/01/18 20:02:38;;;;;;;21.6;6.9;;;;;;;;;;;;;-78
2022/01/18 20:05:24;;;;;;;;;;;;;;;4.06;95.25586;103734.3;;;;-78
2022/01/18 20:10:24;;;;;;;;;;;;;;;4.06;95.17969;103728.2;;;;-79
2022/01/18 20:15:27;;;;;;;;;;;;;;;4.06;95.26465;103720.9;;;;-78
2022/01/18 20:20:24;;;;;;;;;;;;;;;4.05;95.30566;103713.2;;;;-78
2022/01/18 20:25:24;;;;;;;;;;;;;;;4.04;95.28418;103705.1;;;;-79
2022/01/18 20:30:25;;;;;;;;;;;;;;;4.05;95.31836;103699.8;;;;-79
2022/01/18 20:32:38;;;;;;;18.6;7.4;;;;;;;;;;;;;-79
2022/01/18 20:35:25;;;;;;;;;;;;;;;4.05;95.33789;103698.7;;;;-79
2022/01/18 20:40:28;;;;;;;;;;;;;;;4.04;95.32715;103691.6;;;;-79
2022/01/18 20:45:24;;;;;;;;;;;;;;;4.05;95.33789;103682.8;;;;-79
2022/01/18 20:50:24;;;;;;;;;;;;;;;4.04;95.30566;103678.8;;;;-78
2022/01/18 20:55:26;;;;;;;;;;;;;;;4.04;95.36035;103669.3;;;;-79
2022/01/18 21:00:24;;;;;;;;;;;;;;;4.05;95.36035;103664.5;;;;-80
2022/01/18 21:02:37;;;;;;;20.1;9;;;;;;;;;;;;;-79
2022/01/18 21:05:24;;;;;;;;;;;;;;;4.04;95.39258;103660.7;;;;-79
2022/01/18 21:10:27;;;;;;;;;;;;;;;4.04;95.39063;103640.3;;;;-79
2022/01/18 21:15:24;;;;;;;;;;;;;;;4.04;95.4248;103624.2;;;;-80
2022/01/18 21:20:24;;;;;;;;;;;;;;;4.05;95.34082;103617;;;;-79
2022/01/18 21:25:24;;;;;;;;;;;;;;;4.05;95.44922;103617.2;;;;-79
2022/01/18 21:30:24;;;;;;;;;;;;;;;4.06;95.40527;103630;;;;-79
2022/01/18 21:32:37;;;;;;;28;10.4;;;;;;;;;;;;;-79
2022/01/18 21:35:24;;;;;;;;;;;;;;;4.06;95.45117;103619.1;;;;-78
2022/01/18 21:40:24;;;;;;;;;;;;;;;4.06;95.38574;103613.1;;;;-79
2022/01/18 21:45:25;;;;;;;;;;;;;;;4.06;95.36426;103619.3;;;;-78
2022/01/18 21:50:24;;;;;;;;;;;;;;;4.06;95.3418;103628.9;;;;-77
2022/01/18 21:55:26;;;;;;;;;;;;;;;4.06;95.375;103614;;;;-79
2022/01/18 22:00:24;;;;;;;;;;;;;;;4.06;95.41602;103622.3;;;;-77
2022/01/18 22:02:37;;;;;;;30.3;11;;;;;;;;;;;;;-80
2022/01/18 22:05:25;;;;;;;;;;;;;;;4.05;95.42676;103625.4;;;;-79
2022/01/18 22:10:24;;;;;;;;;;;;;;;4.05;95.4248;103611.9;;;;-77
2022/01/18 22:15:24;;;;;;;;;;;;;;;4.04;95.41406;103604.1;;;;-76
2022/01/18 22:20:24;;;;;;;;;;;;;;;4.05;95.38184;103590.9;;;;-77
2022/01/18 22:25:24;;;;;;;;;;;;;;;4.04;95.31445;103577.8;;;;-77
2022/01/18 22:30:24;;;;;;;;;;;;;;;4.03;95.33398;103552.4;;;;-77
2022/01/18 22:32:37;;;;;;;27.3;11.4;;;;;;;;;;;;;-78
2022/01/18 22:35:24;;;;;;;;;;;;;;;4.02;95.32324;103536.3;;;;-78
2022/01/18 22:40:24;;;;;;;;;;;;;;;4.02;95.33203;103539.9;;;;-78
2022/01/18 22:45:24;;;;;;;;;;;;;;;4.01;95.24316;103523.5;;;;-78
2022/01/18 22:50:24;;;;;;;;;;;;;;;4.01;95.26563;103521;;;;-77
2022/01/18 22:55:24;;;;;;;;;;;;;;;4;95.26367;103504.6;;;;-77
2022/01/18 23:00:34;;;;;;;;;;;;;;;4;95.24316;103499.7;;;;-80
2022/01/18 23:02:36;;;;;;;29.3;11.9;;;;;;;;;;;;;-79
2022/01/18 23:05:25;;;;;;;;;;;;;;;4;95.17676;103499.5;;;;-79
2022/01/18 23:10:24;;;;;;;;;;;;;;;3.99;95.1748;103485.3;;;;-80
2022/01/18 23:15:24;;;;;;;;;;;;;;;3.99;95.19629;103475.6;;;;-80
2022/01/18 23:20:24;;;;;;;;;;;;;;;3.99;95.16406;103476.8;;;;-80
2022/01/18 23:25:24;;;;;;;;;;;;;;;3.99;95.15234;103480.2;;;;-81
2022/01/18 23:30:24;;;;;;;;;;;;;;;3.98;95.17285;103470.5;;;;-79
2022/01/18 23:32:37;;;;;;;30.2;11.9;;;;;;;;;;;;;-79
2022/01/18 23:35:26;;;;;;;;;;;;;;;3.96;95.16797;103448.9;;;;-79
2022/01/18 23:45:24;;;;;;;;;;;;;;;3.95;95.13379;103441.9;;;;-81
2022/01/18 23:50:24;;;;;;;;;;;;;;;3.93;95.11719;103428.4;;;;-79
2022/01/18 23:55:24;;;;;;;;;;;;;;;3.92;95.10645;103417.1;;;;-80
